AirNav   SIMCOM
 
 449 users online  

04I Columbus Southwest Airport
Columbus, Ohio, USA

GOING TO COLUMBUS?


FAA INFORMATION EFFECTIVE 09 NOVEMBER 2017

Location

FAA Identifier: 04I
Lat/Long: 39-54-40.2240N / 083-11-19.6850W
39-54.670400N / 083-11.328083W
39.9111733 / -83.1888014
(estimated)
Elevation: 920 ft. / 280.4 m (surveyed)
Variation: 05W (1985)
From city: 11 miles SW of COLUMBUS, OH
Time zone: UTC -5 (UTC -4 during Daylight Saving Time)
Zip code: 43119

Airport Operations

Airport use: Open to the public
Activation date: 05/1948
Control tower: no
ARTCC: INDIANAPOLIS CENTER
FSS: DAYTON FLIGHT SERVICE STATION
NOTAMs facility: DAY (NOTAM-D service available)
Attendance: 0900-1700
Wind indicator: yes
Segmented circle: no
Lights: FOR LIRL RY 06/24 CALL AMGR.

Airport Communications

CTAF: 122.9
WX AWOS-3 at TZR (2.5 nm E): 135.925 (614-878-1722)
WX ASOS at OSU (11 nm NE): PHONE 614-451-2465
WX AWOS-3PT at UYF (13 nm W): 120.85 (740-852-2844)
WX AWOS-3 at LCK (13 nm SE): 132.750 (614-492-2441)
WX ASOS at CMH (15 nm E): 124.6 (614-338-4083)

Nearby radio navigation aids

VOR radial/distance  VOR name  Freq  Var
XUBr342/(25.0)YELLOW BUD VOR112.5005W
SGHr086/30.5SPRINGFIELD VOR/DME113.2004W
APEr248/31.1APPLETON VORTAC116.7006W

 
NDB name  Hdg/Dist  Freq  Var  ID
BOUTN013/5.623005WBU -... ..-
FULER183/9.851505WOS --- ...
COBBS329/12.725307WDD -.. -..
COURT HOUSE033/20.841406WCSS -.-. ... ...
CLARK COUNTY089/27.334104WCCJ -.-. -.-. .---
NEWARK264/34.152406WHEH .... . ....

Airport Services

Parking: hangars and tiedowns

Runway Information

Runway 6/24

Dimensions: 2382 x 120 ft. / 726 x 37 m
Surface: turf, in good condition
UNDULATING SFC; RY SOFT WHEN WET; CHECK NOTAMS OR CALL AMGR AT (614) 878-4080.
Runway edge lights: low intensity
Operational restrictions: HAS SOFT SPOTS AFTR RAIN.
RUNWAY 6  RUNWAY 24
Latitude: 39-54.549167N39-54.788000N
Longitude: 083-11.570000W083-11.083000W
Elevation: 920.0 ft.920.0 ft.
Gradient: 0.2%0.2%
Traffic pattern: leftleft
Obstructions: 34 ft. trees, 65 ft. right of centerline50 ft. tree, 433 ft. from runway, 60 ft. left of centerline, 8:1 slope to clear

Airport Ownership and Management from official FAA records

Ownership: Privately-owned
Owner: ED BOWERS
1751 ALTON ROAD
GALLOWAY, OH 43119
Phone 614-878-4080
Manager: ED BOWERS
1751 ALTON ROAD
GALLOWAY, OH 43119
Phone 614-878-4080

Airport Operational Statistics

Aircraft based on the field: 12
Single engine airplanes: 12
    
Aircraft operations: avg 70/week *
50% transient general aviation
50% local general aviation
* for 12-month period ending 27 August 2016

Additional Remarks

A23 HELICOPTERS, ACFT TOWING BANNERS & ULTRALIGHTS USE RIGHT TRAFFIC.
BIRD HAZARD DUE TO NEW PONDS LOCATED NW OF ARPT.
BIRD ACTIVITY INVOF AIRPORT.

Instrument Procedures

There are no published instrument procedures at 04I.

Some nearby airports with instrument procedures:

KTZR - Bolton Field Airport (2 nm E)
KOSU - Ohio State University Airport (11 nm NE)
KUYF - Madison County Airport (13 nm W)
KLCK - Rickenbacker International Airport (13 nm SE)
KCMH - John Glenn Columbus International Airport (15 nm E)
 
Loc | Ops | Rwys | IFR | FBO | Links
Com | Nav | Svcs | Stats | Notes


 
Area around 04I (Columbus Southwest Airport)
 
Road maps at: MapQuest Bing Google
 
Aerial photo
WARNING: Photo may not be current or correct
Aerial photo of 04I (Columbus Southwest Airport)
Photo taken 16-Sep-2014
looking west.

Do you have a better or more recent aerial photo of Columbus Southwest Airport that you would like to share? If so, please send us your photo.

 
Sectional chart

 
Airport distance calculator
Flying to Columbus Southwest Airport? Find the distance to fly.

From to 04I

Sunrise and sunset
Times for 18-Nov-2017
 Local
(UTC-5)
 Zulu
(UTC)
Morning civil twilight06:5311:53
Sunrise07:2212:22
Sunset17:1422:14
Evening civil twilight17:4322:43

Current date and time
Zulu (UTC)  18-Nov-2017 11:52:01
Local (UTC-5)  18-Nov-2017 06:52:01
 
METAR
KTZR 
3nm SE 
181135Z AUTO 19008KT 10SM OVC034 10/08 A2961 RMK AO2 LTG DSNT NW T01000077
KOSU 
11nm NE 
181053Z AUTO 14004KT 10SM OVC037 08/07 A2961 RMK AO2 SLP031 T00780072
KUYF 
13nm W 
181135Z AUTO 20012KT 10SM TS OVC030 11/08 A2958 RMK AO2 LTG DSNT N AND NW
KLCK 
14nm SE 
181135Z AUTO 19008KT 10SM OVC036 09/07 A2961 RMK AO2 LTG DSNT NW T00870073
KCMH 
15nm E 
181051Z 15006KT 10SM BKN039 BKN150 08/07 A2963 RMK AO2 RAE06 SLP034 P0000 T00830067
TAF
KLCK 
14nm SE 
180907Z 1809/1906 17009G18KT 6SM -SHRA OVC040 WS020/20045KT FM181100 19011G19KT 4SM -SHRA BR VCTS OVC035CB WS020/20045KT FM181500 20015G24KT P6SM VCSH OVC014 FM182300 21017G28KT 4SM SHRA BR OVC012 FM190200 28021G28KT 4SM -SHRA OVC012 FM190500 29022G34KT P6SM OVC015
KCMH 
15nm E 
180907Z 1809/1906 17009G18KT 6SM -SHRA OVC040 WS020/20045KT FM181100 19011G19KT 4SM -SHRA BR VCTS OVC035CB WS020/20045KT FM181500 20015G24KT P6SM VCSH OVC014 FM182300 21017G28KT 4SM SHRA BR OVC012 FM190200 28021G28KT 4SM -SHRA BR OVC012 FM190500 29022G34KT P6SM OVC015
NOTAMs
Click for the latest NOTAMs
NOTAMs are issued by the DoD/FAA and will open in a separate window not controlled by AirNav.

 

 
 

Would you like to see your business listed on this page?

 If your business provides an interesting product or service to pilots, flight crews, aircraft, or users of the Columbus Southwest Airport, you should consider listing it here.  To start the listing process, click on the button below
 
Add a business
 

Other Pages about Columbus Southwest Airport

Update a link
 
Copyright © AirNav, LLC. All rights reserved. Privacy Policy  Contact